sensor_id;sensor_type;location;lat;lon;timestamp;P1;durP1;ratioP1;P2;durP2;ratioP2
24585;SDS011;12743;52.262;6.172;2023-04-01T00:02:22;8.33;;;2.13;;
24585;SDS011;12743;52.262;6.172;2023-04-01T00:04:49;8.35;;;2.13;;
24585;SDS011;12743;52.262;6.172;2023-04-01T00:07:16;9.73;;;2.55;;
24585;SDS011;12743;52.262;6.172;2023-04-01T00:09:42;8.25;;;2.72;;
24585;SDS011;12743;52.262;6.172;2023-04-01T00:12:09;7.00;;;2.13;;
24585;SDS011;12743;52.262;6.172;2023-04-01T00:14:36;8.60;;;2.80;;
24585;SDS011;12743;52.262;6.172;2023-04-01T00:17:03;6.63;;;1.98;;
24585;SDS011;12743;52.262;6.172;2023-04-01T00:19:30;9.30;;;2.88;;
24585;SDS011;12743;52.262;6.172;2023-04-01T00:21:58;8.57;;;2.40;;
24585;SDS011;12743;52.262;6.172;2023-04-01T00:24:24;9.27;;;2.60;;
24585;SDS011;12743;52.262;6.172;2023-04-01T00:26:51;8.00;;;2.27;;
24585;SDS011;12743;52.262;6.172;2023-04-01T00:29:17;9.93;;;2.80;;
24585;SDS011;12743;52.262;6.172;2023-04-01T00:31:44;9.70;;;2.83;;
24585;SDS011;12743;52.262;6.172;2023-04-01T00:34:11;8.43;;;2.58;;
24585;SDS011;12743;52.262;6.172;2023-04-01T00:36:38;8.50;;;2.47;;
24585;SDS011;12743;52.262;6.172;2023-04-01T00:39:05;7.87;;;2.47;;
24585;SDS011;12743;52.262;6.172;2023-04-01T00:41:31;7.78;;;2.75;;
24585;SDS011;12743;52.262;6.172;2023-04-01T00:46:48;9.43;;;2.80;;
24585;SDS011;12743;52.262;6.172;2023-04-01T00:49:15;9.43;;;3.10;;
24585;SDS011;12743;52.262;6.172;2023-04-01T00:51:45;7.43;;;2.03;;
24585;SDS011;12743;52.262;6.172;2023-04-01T00:54:15;7.47;;;2.35;;
24585;SDS011;12743;52.262;6.172;2023-04-01T00:56:48;8.38;;;2.90;;
24585;SDS011;12743;52.262;6.172;2023-04-01T00:59:21;7.72;;;2.38;;
24585;SDS011;12743;52.262;6.172;2023-04-01T01:01:51;6.68;;;2.60;;
24585;SDS011;12743;52.262;6.172;2023-04-01T01:04:25;9.00;;;2.40;;
24585;SDS011;12743;52.262;6.172;2023-04-01T01:06:56;7.50;;;1.88;;
24585;SDS011;12743;52.262;6.172;2023-04-01T01:09:30;9.85;;;2.25;;
24585;SDS011;12743;52.262;6.172;2023-04-01T01:12:13;5.88;;;2.00;;
24585;SDS011;12743;52.262;6.172;2023-04-01T01:32:17;10.50;;;2.73;;
24585;SDS011;12743;52.262;6.172;2023-04-01T01:35:17;9.68;;;3.28;;
24585;SDS011;12743;52.262;6.172;2023-04-01T01:37:46;9.63;;;3.13;;
24585;SDS011;12743;52.262;6.172;2023-04-01T01:40:16;9.15;;;2.95;;
24585;SDS011;12743;52.262;6.172;2023-04-01T01:42:44;9.93;;;3.00;;
24585;SDS011;12743;52.262;6.172;2023-04-01T01:45:14;9.33;;;3.33;;
24585;SDS011;12743;52.262;6.172;2023-04-01T01:47:45;8.95;;;3.28;;
24585;SDS011;12743;52.262;6.172;2023-04-01T01:50:13;9.85;;;3.95;;
24585;SDS011;12743;52.262;6.172;2023-04-01T01:52:42;10.63;;;3.95;;
24585;SDS011;12743;52.262;6.172;2023-04-01T01:55:25;11.82;;;3.40;;
24585;SDS011;12743;52.262;6.172;2023-04-01T01:57:56;10.73;;;4.23;;
24585;SDS011;12743;52.262;6.172;2023-04-01T02:00:26;12.38;;;4.47;;
24585;SDS011;12743;52.262;6.172;2023-04-01T02:02:53;11.52;;;4.75;;
24585;SDS011;12743;52.262;6.172;2023-04-01T02:05:23;13.55;;;4.85;;
24585;SDS011;12743;52.262;6.172;2023-04-01T02:07:59;13.25;;;5.35;;
24585;SDS011;12743;52.262;6.172;2023-04-01T02:10:26;12.80;;;4.63;;
24585;SDS011;12743;52.262;6.172;2023-04-01T02:12:58;11.98;;;5.00;;
24585;SDS011;12743;52.262;6.172;2023-04-01T02:15:30;12.50;;;4.28;;
24585;SDS011;12743;52.262;6.172;2023-04-01T02:18:01;14.07;;;4.63;;
24585;SDS011;12743;52.262;6.172;2023-04-01T02:20:29;12.90;;;5.10;;
24585;SDS011;12743;52.262;6.172;2023-04-01T02:22:56;13.77;;;4.93;;
24585;SDS011;12743;52.262;6.172;2023-04-01T02:25:30;13.68;;;5.35;;
24585;SDS011;12743;52.262;6.172;2023-04-01T02:28:01;13.38;;;5.53;;
24585;SDS011;12743;52.262;6.172;2023-04-01T02:30:30;15.18;;;5.90;;
24585;SDS011;12743;52.262;6.172;2023-04-01T02:32:59;18.25;;;6.50;;
24585;SDS011;12743;52.262;6.172;2023-04-01T02:35:29;18.07;;;5.23;;
24585;SDS011;12743;52.262;6.172;2023-04-01T02:37:56;20.08;;;6.53;;
24585;SDS011;12743;52.262;6.172;2023-04-01T02:40:23;16.60;;;6.90;;
24585;SDS011;12743;52.262;6.172;2023-04-01T02:42:49;18.15;;;7.15;;
24585;SDS011;12743;52.262;6.172;2023-04-01T02:45:16;16.40;;;6.30;;
24585;SDS011;12743;52.262;6.172;2023-04-01T02:47:43;19.00;;;7.07;;
24585;SDS011;12743;52.262;6.172;2023-04-01T02:50:10;18.33;;;6.90;;
24585;SDS011;12743;52.262;6.172;2023-04-01T02:52:37;19.48;;;7.18;;
24585;SDS011;12743;52.262;6.172;2023-04-01T02:55:04;17.73;;;7.30;;
24585;SDS011;12743;52.262;6.172;2023-04-01T02:57:33;20.20;;;7.55;;
24585;SDS011;12743;52.262;6.172;2023-04-01T02:59:59;18.00;;;7.33;;
24585;SDS011;12743;52.262;6.172;2023-04-01T03:02:26;15.82;;;6.93;;
24585;SDS011;12743;52.262;6.172;2023-04-01T03:04:53;16.15;;;7.82;;
24585;SDS011;12743;52.262;6.172;2023-04-01T03:07:19;15.57;;;7.05;;
24585;SDS011;12743;52.262;6.172;2023-04-01T03:09:47;18.45;;;6.50;;
24585;SDS011;12743;52.262;6.172;2023-04-01T03:12:14;17.17;;;7.17;;
24585;SDS011;12743;52.262;6.172;2023-04-01T03:14:48;16.13;;;7.35;;
24585;SDS011;12743;52.262;6.172;2023-04-01T03:17:15;16.23;;;6.93;;
24585;SDS011;12743;52.262;6.172;2023-04-01T03:19:41;16.08;;;7.32;;
24585;SDS011;12743;52.262;6.172;2023-04-01T03:22:10;18.95;;;7.15;;
24585;SDS011;12743;52.262;6.172;2023-04-01T03:24:37;19.23;;;7.83;;
24585;SDS011;12743;52.262;6.172;2023-04-01T03:27:03;19.65;;;8.48;;
24585;SDS011;12743;52.262;6.172;2023-04-01T03:29:30;16.52;;;7.57;;
24585;SDS011;12743;52.262;6.172;2023-04-01T03:31:56;20.08;;;8.10;;
24585;SDS011;12743;52.262;6.172;2023-04-01T03:34:25;17.50;;;7.75;;
24585;SDS011;12743;52.262;6.172;2023-04-01T03:36:52;20.30;;;7.97;;
24585;SDS011;12743;52.262;6.172;2023-04-01T03:39:19;20.73;;;8.50;;
24585;SDS011;12743;52.262;6.172;2023-04-01T03:41:46;19.10;;;7.65;;
24585;SDS011;12743;52.262;6.172;2023-04-01T03:44:12;22.13;;;8.48;;
24585;SDS011;12743;52.262;6.172;2023-04-01T03:46:39;25.10;;;8.93;;
24585;SDS011;12743;52.262;6.172;2023-04-01T03:49:07;21.47;;;9.07;;
24585;SDS011;12743;52.262;6.172;2023-04-01T03:51:38;22.15;;;8.55;;
24585;SDS011;12743;52.262;6.172;2023-04-01T03:54:05;23.30;;;8.10;;
24585;SDS011;12743;52.262;6.172;2023-04-01T03:56:32;20.00;;;8.02;;
24585;SDS011;12743;52.262;6.172;2023-04-01T03:59:01;24.25;;;8.60;;
24585;SDS011;12743;52.262;6.172;2023-04-01T04:01:29;20.83;;;8.17;;
24585;SDS011;12743;52.262;6.172;2023-04-01T04:03:56;21.30;;;7.70;;
24585;SDS011;12743;52.262;6.172;2023-04-01T04:06:23;24.25;;;8.32;;
24585;SDS011;12743;52.262;6.172;2023-04-01T04:08:51;22.35;;;6.97;;
24585;SDS011;12743;52.262;6.172;2023-04-01T04:11:18;18.98;;;8.05;;
24585;SDS011;12743;52.262;6.172;2023-04-01T04:13:46;17.87;;;7.13;;
24585;SDS011;12743;52.262;6.172;2023-04-01T04:16:15;19.20;;;6.80;;
24585;SDS011;12743;52.262;6.172;2023-04-01T04:18:46;17.52;;;6.07;;
24585;SDS011;12743;52.262;6.172;2023-04-01T04:21:13;19.00;;;5.75;;
24585;SDS011;12743;52.262;6.172;2023-04-01T04:23:42;19.98;;;6.00;;
24585;SDS011;12743;52.262;6.172;2023-04-01T04:26:11;18.77;;;6.13;;
24585;SDS011;12743;52.262;6.172;2023-04-01T04:28:39;14.50;;;5.85;;
24585;SDS011;12743;52.262;6.172;2023-04-01T04:31:06;17.30;;;6.10;;
24585;SDS011;12743;52.262;6.172;2023-04-01T04:33:34;20.83;;;6.03;;
24585;SDS011;12743;52.262;6.172;2023-04-01T04:36:03;22.73;;;5.72;;
24585;SDS011;12743;52.262;6.172;2023-04-01T04:38:30;15.60;;;5.60;;
24585;SDS011;12743;52.262;6.172;2023-04-01T04:40:58;16.77;;;5.38;;
24585;SDS011;12743;52.262;6.172;2023-04-01T04:43:24;12.55;;;4.88;;
24585;SDS011;12743;52.262;6.172;2023-04-01T04:45:51;14.57;;;4.63;;
24585;SDS011;12743;52.262;6.172;2023-04-01T04:48:18;13.90;;;4.38;;
24585;SDS011;12743;52.262;6.172;2023-04-01T04:50:47;15.67;;;4.77;;
24585;SDS011;12743;52.262;6.172;2023-04-01T04:53:17;17.48;;;4.72;;
24585;SDS011;12743;52.262;6.172;2023-04-01T04:55:46;13.20;;;4.43;;
24585;SDS011;12743;52.262;6.172;2023-04-01T04:58:36;15.32;;;4.80;;
24585;SDS011;12743;52.262;6.172;2023-04-01T05:01:09;22.50;;;5.00;;
24585;SDS011;12743;52.262;6.172;2023-04-01T05:03:38;14.40;;;4.27;;
24585;SDS011;12743;52.262;6.172;2023-04-01T05:06:05;11.88;;;4.55;;
24585;SDS011;12743;52.262;6.172;2023-04-01T05:08:34;12.10;;;4.00;;
24585;SDS011;12743;52.262;6.172;2023-04-01T05:11:02;14.23;;;4.63;;
24585;SDS011;12743;52.262;6.172;2023-04-01T05:13:31;13.07;;;3.95;;
24585;SDS011;12743;52.262;6.172;2023-04-01T05:15:58;14.07;;;4.67;;
24585;SDS011;12743;52.262;6.172;2023-04-01T05:18:24;13.05;;;4.85;;
24585;SDS011;12743;52.262;6.172;2023-04-01T05:20:52;14.95;;;4.50;;
24585;SDS011;12743;52.262;6.172;2023-04-01T05:23:19;14.32;;;5.05;;
24585;SDS011;12743;52.262;6.172;2023-04-01T05:25:48;11.35;;;4.20;;
24585;SDS011;12743;52.262;6.172;2023-04-01T05:28:15;12.53;;;4.77;;
24585;SDS011;12743;52.262;6.172;2023-04-01T05:30:45;15.38;;;4.30;;
24585;SDS011;12743;52.262;6.172;2023-04-01T05:33:23;11.00;;;4.15;;
24585;SDS011;12743;52.262;6.172;2023-04-01T05:35:49;11.68;;;4.40;;
24585;SDS011;12743;52.262;6.172;2023-04-01T05:38:16;10.68;;;4.05;;
24585;SDS011;12743;52.262;6.172;2023-04-01T05:40:43;13.20;;;4.57;;
24585;SDS011;12743;52.262;6.172;2023-04-01T05:43:10;11.75;;;4.50;;
24585;SDS011;12743;52.262;6.172;2023-04-01T05:45:36;10.25;;;4.70;;
24585;SDS011;12743;52.262;6.172;2023-04-01T05:48:29;11.80;;;5.07;;
24585;SDS011;12743;52.262;6.172;2023-04-01T05:50:57;12.68;;;4.55;;
24585;SDS011;12743;52.262;6.172;2023-04-01T05:53:23;12.47;;;4.93;;
24585;SDS011;12743;52.262;6.172;2023-04-01T05:55:50;12.98;;;5.13;;
24585;SDS011;12743;52.262;6.172;2023-04-01T05:58:17;12.40;;;4.90;;
24585;SDS011;12743;52.262;6.172;2023-04-01T06:00:46;11.35;;;4.68;;
24585;SDS011;12743;52.262;6.172;2023-04-01T06:03:15;12.02;;;5.20;;
24585;SDS011;12743;52.262;6.172;2023-04-01T06:05:43;13.80;;;5.27;;
24585;SDS011;12743;52.262;6.172;2023-04-01T06:08:14;16.70;;;5.72;;
24585;SDS011;12743;52.262;6.172;2023-04-01T06:10:59;16.58;;;6.57;;
24585;SDS011;12743;52.262;6.172;2023-04-01T06:17:05;12.57;;;5.68;;
24585;SDS011;12743;52.262;6.172;2023-04-01T06:19:40;16.00;;;5.83;;
24585;SDS011;12743;52.262;6.172;2023-04-01T06:24:56;14.98;;;6.20;;
24585;SDS011;12743;52.262;6.172;2023-04-01T06:33:17;17.50;;;6.70;;
24585;SDS011;12743;52.262;6.172;2023-04-01T06:39:37;17.55;;;7.30;;
24585;SDS011;12743;52.262;6.172;2023-04-01T06:47:34;19.27;;;8.27;;
24585;SDS011;12743;52.262;6.172;2023-04-01T06:50:24;15.82;;;6.68;;
24585;SDS011;12743;52.262;6.172;2023-04-01T06:53:29;17.17;;;6.80;;
24585;SDS011;12743;52.262;6.172;2023-04-01T06:56:37;19.05;;;7.75;;
24585;SDS011;12743;52.262;6.172;2023-04-01T06:59:15;16.08;;;7.03;;
24585;SDS011;12743;52.262;6.172;2023-04-01T07:04:35;16.70;;;6.70;;
24585;SDS011;12743;52.262;6.172;2023-04-01T07:07:08;17.45;;;7.45;;
24585;SDS011;12743;52.262;6.172;2023-04-01T07:09:52;19.48;;;8.10;;
24585;SDS011;12743;52.262;6.172;2023-04-01T07:16:03;17.67;;;7.67;;
24585;SDS011;12743;52.262;6.172;2023-04-01T07:18:36;17.70;;;7.47;;
24585;SDS011;12743;52.262;6.172;2023-04-01T07:24:13;19.42;;;7.88;;
24585;SDS011;12743;52.262;6.172;2023-04-01T07:26:59;16.15;;;6.55;;
24585;SDS011;12743;52.262;6.172;2023-04-01T07:29:33;19.90;;;7.77;;
24585;SDS011;12743;52.262;6.172;2023-04-01T07:52:27;20.35;;;7.05;;
24585;SDS011;12743;52.262;6.172;2023-04-01T07:58:21;18.70;;;7.10;;
24585;SDS011;12743;52.262;6.172;2023-04-01T08:06:19;20.10;;;6.65;;
24585;SDS011;12743;52.262;6.172;2023-04-01T08:15:49;18.40;;;6.50;;
24585;SDS011;12743;52.262;6.172;2023-04-01T08:21:35;15.90;;;5.75;;
24585;SDS011;12743;52.262;6.172;2023-04-01T08:24:20;21.13;;;6.82;;
24585;SDS011;12743;52.262;6.172;2023-04-01T08:27:21;15.93;;;5.03;;
24585;SDS011;12743;52.262;6.172;2023-04-01T08:30:30;14.38;;;5.07;;
24585;SDS011;12743;52.262;6.172;2023-04-01T08:32:59;14.82;;;5.55;;
24585;SDS011;12743;52.262;6.172;2023-04-01T08:35:46;14.57;;;5.38;;
24585;SDS011;12743;52.262;6.172;2023-04-01T08:53:21;15.32;;;5.70;;
24585;SDS011;12743;52.262;6.172;2023-04-01T09:01:46;12.30;;;4.85;;
24585;SDS011;12743;52.262;6.172;2023-04-01T09:04:51;13.52;;;5.30;;
24585;SDS011;12743;52.262;6.172;2023-04-01T09:16:13;15.05;;;5.10;;
24585;SDS011;12743;52.262;6.172;2023-04-01T09:22:07;12.63;;;4.70;;
24585;SDS011;12743;52.262;6.172;2023-04-01T09:33:45;9.45;;;3.60;;
24585;SDS011;12743;52.262;6.172;2023-04-01T09:50:35;10.00;;;3.25;;
24585;SDS011;12743;52.262;6.172;2023-04-01T09:53:09;8.70;;;3.17;;
24585;SDS011;12743;52.262;6.172;2023-04-01T09:58:42;8.30;;;2.78;;
24585;SDS011;12743;52.262;6.172;2023-04-01T10:04:40;6.97;;;2.83;;
24585;SDS011;12743;52.262;6.172;2023-04-01T10:07:34;6.83;;;2.47;;
24585;SDS011;12743;52.262;6.172;2023-04-01T10:10:39;6.82;;;2.47;;
24585;SDS011;12743;52.262;6.172;2023-04-01T10:13:33;6.00;;;2.53;;
24585;SDS011;12743;52.262;6.172;2023-04-01T10:22:16;7.43;;;3.10;;
24585;SDS011;12743;52.262;6.172;2023-04-01T10:24:54;7.22;;;3.03;;
24585;SDS011;12743;52.262;6.172;2023-04-01T10:27:48;7.53;;;2.83;;
24585;SDS011;12743;52.262;6.172;2023-04-01T10:50:53;6.20;;;2.20;;
24585;SDS011;12743;52.262;6.172;2023-04-01T10:56:49;5.93;;;2.60;;
24585;SDS011;12743;52.262;6.172;2023-04-01T11:00:03;6.25;;;2.70;;
24585;SDS011;12743;52.262;6.172;2023-04-01T11:06:46;6.03;;;1.90;;
24585;SDS011;12743;52.262;6.172;2023-04-01T11:12:50;4.82;;;1.95;;
24585;SDS011;12743;52.262;6.172;2023-04-01T11:15:26;5.75;;;2.40;;
24585;SDS011;12743;52.262;6.172;2023-04-01T11:21:16;5.27;;;2.27;;
24585;SDS011;12743;52.262;6.172;2023-04-01T11:32:42;5.60;;;2.35;;
24585;SDS011;12743;52.262;6.172;2023-04-01T11:35:22;5.03;;;2.10;;
24585;SDS011;12743;52.262;6.172;2023-04-01T11:38:10;6.30;;;2.70;;
24585;SDS011;12743;52.262;6.172;2023-04-01T11:40:54;5.25;;;2.25;;
24585;SDS011;12743;52.262;6.172;2023-04-01T11:43:53;6.68;;;2.25;;
24585;SDS011;12743;52.262;6.172;2023-04-01T11:46:50;5.50;;;2.47;;
24585;SDS011;12743;52.262;6.172;2023-04-01T11:49:38;4.40;;;1.83;;
24585;SDS011;12743;52.262;6.172;2023-04-01T11:55:23;2.83;;;0.88;;
24585;SDS011;12743;52.262;6.172;2023-04-01T11:58:07;3.78;;;0.90;;
24585;SDS011;12743;52.262;6.172;2023-04-01T12:00:48;3.60;;;1.15;;
24585;SDS011;12743;52.262;6.172;2023-04-01T12:03:46;4.87;;;1.40;;
24585;SDS011;12743;52.262;6.172;2023-04-01T12:06:26;5.03;;;1.48;;
24585;SDS011;12743;52.262;6.172;2023-04-01T12:09:01;4.88;;;2.00;;
24585;SDS011;12743;52.262;6.172;2023-04-01T12:11:43;6.63;;;1.95;;
24585;SDS011;12743;52.262;6.172;2023-04-01T12:14:27;5.32;;;2.17;;
24585;SDS011;12743;52.262;6.172;2023-04-01T12:19:57;5.97;;;2.13;;
24585;SDS011;12743;52.262;6.172;2023-04-01T12:25:38;5.18;;;2.00;;
24585;SDS011;12743;52.262;6.172;2023-04-01T12:29:07;4.85;;;1.75;;
24585;SDS011;12743;52.262;6.172;2023-04-01T12:31:53;4.93;;;1.70;;
24585;SDS011;12743;52.262;6.172;2023-04-01T12:37:21;4.90;;;1.90;;
24585;SDS011;12743;52.262;6.172;2023-04-01T12:43:02;4.70;;;1.85;;
24585;SDS011;12743;52.262;6.172;2023-04-01T12:48:27;4.80;;;1.95;;
24585;SDS011;12743;52.262;6.172;2023-04-01T12:54:02;4.53;;;1.40;;
24585;SDS011;12743;52.262;6.172;2023-04-01T12:59:22;3.33;;;1.00;;
24585;SDS011;12743;52.262;6.172;2023-04-01T13:05:01;3.25;;;1.10;;
24585;SDS011;12743;52.262;6.172;2023-04-01T13:08:07;3.92;;;1.10;;
24585;SDS011;12743;52.262;6.172;2023-04-01T13:10:53;5.28;;;1.60;;
24585;SDS011;12743;52.262;6.172;2023-04-01T13:16:02;3.85;;;1.50;;
24585;SDS011;12743;52.262;6.172;2023-04-01T13:18:39;4.97;;;1.80;;
24585;SDS011;12743;52.262;6.172;2023-04-01T13:24:24;5.25;;;2.20;;
24585;SDS011;12743;52.262;6.172;2023-04-01T13:27:14;4.83;;;2.00;;
24585;SDS011;12743;52.262;6.172;2023-04-01T13:43:39;5.93;;;2.88;;
24585;SDS011;12743;52.262;6.172;2023-04-01T13:46:20;5.60;;;2.63;;
24585;SDS011;12743;52.262;6.172;2023-04-01T13:58:01;8.15;;;4.20;;
24585;SDS011;12743;52.262;6.172;2023-04-01T14:00:46;7.30;;;3.45;;
24585;SDS011;12743;52.262;6.172;2023-04-01T14:06:12;7.18;;;3.40;;
24585;SDS011;12743;52.262;6.172;2023-04-01T14:08:48;6.17;;;2.83;;
24585;SDS011;12743;52.262;6.172;2023-04-01T14:14:18;7.93;;;3.63;;
24585;SDS011;12743;52.262;6.172;2023-04-01T14:22:56;6.53;;;3.00;;
24585;SDS011;12743;52.262;6.172;2023-04-01T14:25:48;6.60;;;2.88;;
24585;SDS011;12743;52.262;6.172;2023-04-01T14:33:58;5.75;;;2.83;;
24585;SDS011;12743;52.262;6.172;2023-04-01T14:36:59;6.33;;;2.73;;
24585;SDS011;12743;52.262;6.172;2023-04-01T14:39:51;7.05;;;3.35;;
24585;SDS011;12743;52.262;6.172;2023-04-01T14:44:57;5.85;;;2.42;;
24585;SDS011;12743;52.262;6.172;2023-04-01T14:47:54;5.57;;;2.78;;
24585;SDS011;12743;52.262;6.172;2023-04-01T14:50:29;8.33;;;3.40;;
24585;SDS011;12743;52.262;6.172;2023-04-01T14:55:34;7.63;;;3.30;;
24585;SDS011;12743;52.262;6.172;2023-04-01T14:58:15;6.50;;;3.55;;
24585;SDS011;12743;52.262;6.172;2023-04-01T15:03:40;5.70;;;2.40;;
24585;SDS011;12743;52.262;6.172;2023-04-01T15:06:27;6.13;;;2.80;;
24585;SDS011;12743;52.262;6.172;2023-04-01T15:12:06;6.50;;;2.70;;
24585;SDS011;12743;52.262;6.172;2023-04-01T15:20:40;5.30;;;2.35;;
24585;SDS011;12743;52.262;6.172;2023-04-01T15:23:21;6.47;;;3.03;;
24585;SDS011;12743;52.262;6.172;2023-04-01T15:35:00;5.75;;;3.05;;
24585;SDS011;12743;52.262;6.172;2023-04-01T15:40:30;6.47;;;2.70;;
24585;SDS011;12743;52.262;6.172;2023-04-01T15:43:11;5.75;;;3.05;;
24585;SDS011;12743;52.262;6.172;2023-04-01T15:48:28;6.45;;;3.67;;
24585;SDS011;12743;52.262;6.172;2023-04-01T15:59:54;5.80;;;2.40;;
24585;SDS011;12743;52.262;6.172;2023-04-01T16:02:31;6.10;;;3.03;;
24585;SDS011;12743;52.262;6.172;2023-04-01T16:13:42;6.43;;;3.00;;
24585;SDS011;12743;52.262;6.172;2023-04-01T16:21:45;6.85;;;2.90;;
24585;SDS011;12743;52.262;6.172;2023-04-01T16:26:57;12.37;;;4.50;;
24585;SDS011;12743;52.262;6.172;2023-04-01T16:32:15;5.30;;;2.55;;
24585;SDS011;12743;52.262;6.172;2023-04-01T16:38:01;6.68;;;2.90;;
24585;SDS011;12743;52.262;6.172;2023-04-01T16:40:37;5.63;;;2.70;;
24585;SDS011;12743;52.262;6.172;2023-04-01T16:43:26;5.70;;;2.78;;
24585;SDS011;12743;52.262;6.172;2023-04-01T16:45:59;5.78;;;2.90;;
24585;SDS011;12743;52.262;6.172;2023-04-01T16:51:37;5.63;;;2.78;;
24585;SDS011;12743;52.262;6.172;2023-04-01T16:54:14;6.13;;;3.10;;
24585;SDS011;12743;52.262;6.172;2023-04-01T16:56:50;5.53;;;2.83;;
24585;SDS011;12743;52.262;6.172;2023-04-01T17:02:09;5.97;;;2.20;;
24585;SDS011;12743;52.262;6.172;2023-04-01T17:04:42;6.72;;;3.10;;
24585;SDS011;12743;52.262;6.172;2023-04-01T17:07:28;5.10;;;2.40;;
24585;SDS011;12743;52.262;6.172;2023-04-01T17:13:09;5.25;;;2.65;;
24585;SDS011;12743;52.262;6.172;2023-04-01T17:18:43;5.25;;;2.28;;
24585;SDS011;12743;52.262;6.172;2023-04-01T17:21:39;5.53;;;2.70;;
24585;SDS011;12743;52.262;6.172;2023-04-01T17:30:34;6.28;;;3.45;;
24585;SDS011;12743;52.262;6.172;2023-04-01T17:33:18;6.85;;;4.05;;
24585;SDS011;12743;52.262;6.172;2023-04-01T17:35:58;8.60;;;4.90;;
24585;SDS011;12743;52.262;6.172;2023-04-01T17:41:36;5.57;;;3.25;;
24585;SDS011;12743;52.262;6.172;2023-04-01T17:47:22;6.10;;;3.05;;
24585;SDS011;12743;52.262;6.172;2023-04-01T18:01:00;5.78;;;2.67;;
24585;SDS011;12743;52.262;6.172;2023-04-01T18:09:32;6.97;;;2.90;;
24585;SDS011;12743;52.262;6.172;2023-04-01T18:12:20;5.32;;;2.90;;
24585;SDS011;12743;52.262;6.172;2023-04-01T18:15:01;4.70;;;2.38;;
24585;SDS011;12743;52.262;6.172;2023-04-01T18:25:44;5.25;;;2.70;;
24585;SDS011;12743;52.262;6.172;2023-04-01T18:28:17;4.38;;;2.25;;
24585;SDS011;12743;52.262;6.172;2023-04-01T18:30:52;5.03;;;2.50;;
24585;SDS011;12743;52.262;6.172;2023-04-01T18:36:17;4.95;;;2.90;;
24585;SDS011;12743;52.262;6.172;2023-04-01T18:47:03;5.30;;;2.80;;
24585;SDS011;12743;52.262;6.172;2023-04-01T18:52:56;6.07;;;2.97;;
24585;SDS011;12743;52.262;6.172;2023-04-01T18:55:37;7.38;;;4.38;;
24585;SDS011;12743;52.262;6.172;2023-04-01T19:03:33;7.68;;;4.40;;
24585;SDS011;12743;52.262;6.172;2023-04-01T19:06:15;7.28;;;4.25;;
24585;SDS011;12743;52.262;6.172;2023-04-01T19:08:47;8.32;;;5.20;;
24585;SDS011;12743;52.262;6.172;2023-04-01T19:14:19;7.00;;;4.28;;
24585;SDS011;12743;52.262;6.172;2023-04-01T19:17:08;7.88;;;4.70;;
24585;SDS011;12743;52.262;6.172;2023-04-01T19:25:12;8.60;;;5.10;;
24585;SDS011;12743;52.262;6.172;2023-04-01T19:28:00;7.82;;;4.57;;
24585;SDS011;12743;52.262;6.172;2023-04-01T19:38:38;8.10;;;4.50;;
24585;SDS011;12743;52.262;6.172;2023-04-01T19:41:21;8.90;;;6.05;;
24585;SDS011;12743;52.262;6.172;2023-04-01T19:46:44;9.45;;;5.28;;
24585;SDS011;12743;52.262;6.172;2023-04-01T19:52:04;9.83;;;5.93;;
24585;SDS011;12743;52.262;6.172;2023-04-01T19:54:46;9.00;;;5.70;;
24585;SDS011;12743;52.262;6.172;2023-04-01T20:03:02;7.90;;;4.90;;
24585;SDS011;12743;52.262;6.172;2023-04-01T20:05:50;7.43;;;4.43;;
24585;SDS011;12743;52.262;6.172;2023-04-01T20:08:41;9.43;;;5.55;;
24585;SDS011;12743;52.262;6.172;2023-04-01T20:11:22;8.43;;;5.13;;
24585;SDS011;12743;52.262;6.172;2023-04-01T20:14:07;11.10;;;6.22;;
24585;SDS011;12743;52.262;6.172;2023-04-01T20:19:39;8.07;;;5.17;;
24585;SDS011;12743;52.262;6.172;2023-04-01T20:27:41;8.95;;;4.88;;
24585;SDS011;12743;52.262;6.172;2023-04-01T20:46:19;10.77;;;5.97;;
24585;SDS011;12743;52.262;6.172;2023-04-01T20:49:01;10.25;;;6.15;;
24585;SDS011;12743;52.262;6.172;2023-04-01T20:57:35;9.65;;;6.22;;
24585;SDS011;12743;52.262;6.172;2023-04-01T21:10:40;11.30;;;6.07;;
24585;SDS011;12743;52.262;6.172;2023-04-01T21:19:00;10.38;;;6.15;;
24585;SDS011;12743;52.262;6.172;2023-04-01T21:21:57;9.57;;;5.50;;
24585;SDS011;12743;52.262;6.172;2023-04-01T21:24:44;9.27;;;6.18;;
24585;SDS011;12743;52.262;6.172;2023-04-01T21:27:37;9.07;;;5.27;;
24585;SDS011;12743;52.262;6.172;2023-04-01T21:30:22;9.60;;;5.63;;
24585;SDS011;12743;52.262;6.172;2023-04-01T21:33:22;8.85;;;5.40;;
24585;SDS011;12743;52.262;6.172;2023-04-01T21:36:18;8.23;;;5.18;;
24585;SDS011;12743;52.262;6.172;2023-04-01T21:42:19;9.00;;;5.03;;
24585;SDS011;12743;52.262;6.172;2023-04-01T21:56:12;9.47;;;5.60;;
24585;SDS011;12743;52.262;6.172;2023-04-01T22:04:38;13.38;;;6.95;;
24585;SDS011;12743;52.262;6.172;2023-04-01T22:07:14;12.43;;;7.50;;
24585;SDS011;12743;52.262;6.172;2023-04-01T22:15:18;17.27;;;9.75;;
24585;SDS011;12743;52.262;6.172;2023-04-01T22:18:00;12.80;;;7.60;;
24585;SDS011;12743;52.262;6.172;2023-04-01T22:20:50;11.45;;;7.28;;
24585;SDS011;12743;52.262;6.172;2023-04-01T22:23:26;14.97;;;8.43;;
24585;SDS011;12743;52.262;6.172;2023-04-01T22:36:50;16.33;;;9.77;;
24585;SDS011;12743;52.262;6.172;2023-04-01T22:39:28;16.15;;;8.63;;
24585;SDS011;12743;52.262;6.172;2023-04-01T22:44:31;13.15;;;7.43;;
24585;SDS011;12743;52.262;6.172;2023-04-01T22:52:45;9.65;;;5.85;;
24585;SDS011;12743;52.262;6.172;2023-04-01T22:55:20;10.98;;;6.30;;
24585;SDS011;12743;52.262;6.172;2023-04-01T22:58:05;9.13;;;5.32;;
24585;SDS011;12743;52.262;6.172;2023-04-01T23:00:39;8.38;;;4.40;;
24585;SDS011;12743;52.262;6.172;2023-04-01T23:03:28;9.00;;;5.17;;
24585;SDS011;12743;52.262;6.172;2023-04-01T23:05:58;8.52;;;5.07;;
24585;SDS011;12743;52.262;6.172;2023-04-01T23:11:27;14.90;;;8.95;;
24585;SDS011;12743;52.262;6.172;2023-04-01T23:14:14;15.55;;;10.18;;
24585;SDS011;12743;52.262;6.172;2023-04-01T23:17:07;16.33;;;10.00;;
24585;SDS011;12743;52.262;6.172;2023-04-01T23:28:23;16.27;;;8.95;;
24585;SDS011;12743;52.262;6.172;2023-04-01T23:31:33;16.40;;;9.47;;
24585;SDS011;12743;52.262;6.172;2023-04-01T23:36:47;14.57;;;9.00;;
24585;SDS011;12743;52.262;6.172;2023-04-01T23:42:02;16.17;;;9.32;;
24585;SDS011;12743;52.262;6.172;2023-04-01T23:44:30;15.97;;;10.17;;
24585;SDS011;12743;52.262;6.172;2023-04-01T23:46:59;15.48;;;9.20;;
24585;SDS011;12743;52.262;6.172;2023-04-01T23:49:29;16.77;;;10.02;;
24585;SDS011;12743;52.262;6.172;2023-04-01T23:52:02;16.65;;;9.10;;
24585;SDS011;12743;52.262;6.172;2023-04-01T23:54:58;13.30;;;8.18;;
24585;SDS011;12743;52.262;6.172;2023-04-01T23:57:31;15.33;;;10.07;;
